createdAt,value
2019-05-23T00:01:33.764Z,65.13
2019-05-23T00:04:18.655Z,65.30
2019-05-23T00:06:49.077Z,65.51
2019-05-23T00:09:20.618Z,66.26
2019-05-23T00:12:10.070Z,66.65
2019-05-23T00:14:44.240Z,66.29
2019-05-23T00:17:18.770Z,66.26
2019-05-23T00:19:50.406Z,66.11
2019-05-23T00:22:20.826Z,66.11
2019-05-23T00:24:50.530Z,66.05
2019-05-23T00:27:20.640Z,65.97
2019-05-23T00:29:51.810Z,66.43
2019-05-23T00:32:43.398Z,66.48
2019-05-23T00:35:15.298Z,66.44
2019-05-23T00:37:47.480Z,66.58
2019-05-23T00:40:19.033Z,67.06
2019-05-23T00:42:48.973Z,67.45
2019-05-23T00:45:18.648Z,67.44
2019-05-23T00:47:49.357Z,67.44
2019-05-23T00:50:21.638Z,67.22
2019-05-23T00:52:53.085Z,67.35
2019-05-23T00:55:30.220Z,67.29
2019-05-23T00:58:00.437Z,67.27
2019-05-23T01:00:30.229Z,67.49
2019-05-23T01:02:59.453Z,67.17
2019-05-23T01:05:31.564Z,67.26
2019-05-23T01:08:01.998Z,67.19
2019-05-23T01:10:31.411Z,67.31
2019-05-23T01:13:00.860Z,67.24
2019-05-23T01:15:30.769Z,67.21
2019-05-23T01:18:01.656Z,67.33
2019-05-23T01:20:45.192Z,67.39
2019-05-23T01:23:15.812Z,67.91
2019-05-23T01:25:47.197Z,68.16
2019-05-23T01:28:18.560Z,68.81
2019-05-23T01:30:49.641Z,68.69
2019-05-23T01:33:20.251Z,68.92
2019-05-23T01:35:50.510Z,68.84
2019-05-23T01:38:21.271Z,69.12
2019-05-23T01:40:53.454Z,69.35
2019-05-23T01:43:23.369Z,69.27
2019-05-23T01:45:53.595Z,69.29
2019-05-23T01:48:43.485Z,69.22
2019-05-23T01:51:14.515Z,69.05
2019-05-23T01:53:43.742Z,68.55
2019-05-23T01:56:13.677Z,68.42
2019-05-23T01:58:45.931Z,68.75
2019-05-23T02:01:16.861Z,69.01
2019-05-23T02:03:47.823Z,68.70
2019-05-23T02:06:17.055Z,68.59
2019-05-23T02:08:47.405Z,68.45
2019-05-23T02:11:18.075Z,68.86
2019-05-23T02:13:47.707Z,69.00
2019-05-23T02:16:18.716Z,69.07
2019-05-23T02:18:48.814Z,69.33
2019-05-23T02:21:18.110Z,69.03
2019-05-23T02:23:47.400Z,69.20
2019-05-23T02:26:17.435Z,69.18
2019-05-23T02:28:47.965Z,69.01
2019-05-23T02:31:17.796Z,69.17
2019-05-23T02:33:47.065Z,68.76
2019-05-23T02:36:16.999Z,69.02
2019-05-23T02:39:08.855Z,69.14
2019-05-23T02:42:02.890Z,69.10
2019-05-23T02:44:34.680Z,69.10
2019-05-23T02:47:23.647Z,68.95
2019-05-23T02:49:56.107Z,69.33
2019-05-23T02:52:49.437Z,69.95
2019-05-23T02:55:31.920Z,70.54
2019-05-23T02:58:11.817Z,70.44
2019-05-23T03:00:56.409Z,70.10
2019-05-23T03:03:30.027Z,69.87
2019-05-23T03:06:00.938Z,70.03
2019-05-23T03:08:31.405Z,70.05
2019-05-23T03:11:37.114Z,70.20
2019-05-23T03:14:11.688Z,70.27
2019-05-23T03:16:44.023Z,70.16
2019-05-23T03:19:23.592Z,69.98
2019-05-23T03:21:58.077Z,69.98
2019-05-23T03:24:29.613Z,70.05
2019-05-23T03:27:02.981Z,70.22
2019-05-23T03:29:34.465Z,70.46
2019-05-23T03:32:23.736Z,70.68
2019-05-23T03:34:59.843Z,70.54
2019-05-23T03:37:29.914Z,71.17
2019-05-23T03:40:14.160Z,71.40
2019-05-23T03:42:46.245Z,71.42
2019-05-23T03:45:17.493Z,71.27
2019-05-23T03:47:46.984Z,71.17
2019-05-23T03:50:16.738Z,70.97
2019-05-23T03:52:46.340Z,70.89
2019-05-23T03:55:16.533Z,71.08
2019-05-23T03:57:49.521Z,71.11
2019-05-23T04:00:21.830Z,70.82
2019-05-23T04:02:52.492Z,70.45
2019-05-23T04:05:22.474Z,70.41
2019-05-23T04:07:53.071Z,70.49
2019-05-23T04:10:24.930Z,70.65
2019-05-23T04:12:54.799Z,70.43
2019-05-23T04:15:24.724Z,69.67
2019-05-23T04:17:54.504Z,68.90
2019-05-23T04:20:24.379Z,68.78
2019-05-23T04:22:53.905Z,68.90
2019-05-23T04:25:23.198Z,68.87
2019-05-23T04:27:53.381Z,68.61
2019-05-23T04:30:22.653Z,68.40
2019-05-23T04:32:52.235Z,67.88
2019-05-23T04:35:23.661Z,67.79
2019-05-23T04:37:53.516Z,67.27
2019-05-23T04:40:23.827Z,66.68
2019-05-23T04:42:53.035Z,65.85
2019-05-23T04:45:23.924Z,64.99
2019-05-23T04:47:54.442Z,64.47
2019-05-23T04:50:23.799Z,63.66
2019-05-23T04:52:55.538Z,63.18
2019-05-23T04:55:27.400Z,62.79
2019-05-23T04:57:57.466Z,62.47
2019-05-23T05:00:27.342Z,62.50
2019-05-23T05:02:56.625Z,61.02
2019-05-23T05:05:26.565Z,53.34
2019-05-23T05:07:55.823Z,45.07
2019-05-23T05:10:26.482Z,37.55
2019-05-23T05:12:55.861Z,35.44
2019-05-23T05:15:25.664Z,33.25
2019-05-23T05:17:55.211Z,32.94
2019-05-23T05:20:26.103Z,31.42
2019-05-23T05:22:55.671Z,30.00
2019-05-23T05:25:26.925Z,29.92
2019-05-23T05:27:57.501Z,29.36
2019-05-23T05:30:28.289Z,29.14
2019-05-23T05:32:58.146Z,29.45
2019-05-23T05:35:29.593Z,28.74
2019-05-23T05:37:59.224Z,28.19
2019-05-23T05:40:30.188Z,27.67
2019-05-23T05:43:01.241Z,28.04
2019-05-23T05:45:31.717Z,26.91
2019-05-23T05:48:02.089Z,26.26
2019-05-23T05:50:31.808Z,26.16
2019-05-23T05:53:01.034Z,26.74
2019-05-23T05:55:30.743Z,27.11
2019-05-23T05:58:00.253Z,25.76
2019-05-23T06:00:54.923Z,25.73
2019-05-23T06:03:25.312Z,24.77
2019-05-23T06:06:12.406Z,24.94
2019-05-23T06:08:43.964Z,25.18
2019-05-23T06:11:14.222Z,25.07
2019-05-23T06:13:44.376Z,25.07
2019-05-23T06:16:13.646Z,24.45
2019-05-23T06:18:42.951Z,24.05
2019-05-23T06:21:14.219Z,23.83
2019-05-23T06:23:43.991Z,24.63
2019-05-23T06:26:13.299Z,24.72
2019-05-23T06:28:44.876Z,24.82
2019-05-23T06:31:14.169Z,24.43
2019-05-23T06:33:43.399Z,24.45
2019-05-23T06:36:13.399Z,24.96
2019-05-23T06:38:42.788Z,25.02
2019-05-23T06:41:12.739Z,25.93
2019-05-23T06:43:42.030Z,25.83
2019-05-23T06:46:32.067Z,25.84
2019-05-23T06:49:01.925Z,25.36
2019-05-23T06:51:31.981Z,24.74
2019-05-23T06:54:01.310Z,24.76
2019-05-23T06:56:31.048Z,25.00
2019-05-23T06:59:00.263Z,25.77
2019-05-23T07:01:29.723Z,25.02
2019-05-23T07:03:59.663Z,24.76
2019-05-23T07:06:29.236Z,25.27
2019-05-23T07:08:58.834Z,28.67
2019-05-23T07:11:29.065Z,32.56
2019-05-23T07:13:58.770Z,35.70
2019-05-23T07:16:28.345Z,37.11
2019-05-23T07:18:57.854Z,38.48
2019-05-23T07:21:28.097Z,38.97
2019-05-23T07:23:57.337Z,39.54
2019-05-23T07:26:26.988Z,39.59
2019-05-23T07:28:56.902Z,39.19
2019-05-23T07:31:26.536Z,39.23
2019-05-23T07:34:01.827Z,38.08
2019-05-23T07:36:29.565Z,38.72
2019-05-23T07:38:59.201Z,38.54
2019-05-23T07:41:29.209Z,38.27
2019-05-23T07:43:59.184Z,38.63
2019-05-23T07:46:28.441Z,38.73
2019-05-23T07:49:00.251Z,38.79
2019-05-23T07:51:29.920Z,38.75
2019-05-23T07:54:07.563Z,38.17
2019-05-23T07:56:38.152Z,38.49
2019-05-23T07:59:07.782Z,37.94
2019-05-23T08:01:39.285Z,37.70
2019-05-23T08:04:20.437Z,37.31
2019-05-23T08:06:40.504Z,37.61
2019-05-23T08:09:11.333Z,37.00
2019-05-23T08:11:42.085Z,37.14
2019-05-23T08:14:13.453Z,35.89
2019-05-23T08:16:42.927Z,37.08
2019-05-23T08:19:18.550Z,35.90
2019-05-23T08:21:44.136Z,36.51
2019-05-23T08:24:15.345Z,36.75
2019-05-23T08:26:45.363Z,35.72
2019-05-23T08:29:29.995Z,36.01
2019-05-23T08:31:45.671Z,36.28
2019-05-23T08:34:15.011Z,37.76
2019-05-23T08:36:44.528Z,35.82
2019-05-23T08:39:14.579Z,36.43
2019-05-23T08:41:44.284Z,37.06
2019-05-23T08:44:13.913Z,35.62
2019-05-23T08:46:45.210Z,36.37
2019-05-23T08:49:14.771Z,36.13
2019-05-23T08:51:45.845Z,35.59
2019-05-23T08:54:15.153Z,35.67
2019-05-23T08:56:44.881Z,35.99
2019-05-23T08:59:15.005Z,35.07
2019-05-23T09:01:45.375Z,35.26
2019-05-23T09:04:15.074Z,35.61
2019-05-23T09:06:44.517Z,34.71
2019-05-23T09:09:28.500Z,34.10
2019-05-23T09:11:44.936Z,35.09
2019-05-23T09:14:15.030Z,34.91
2019-05-23T09:16:44.725Z,35.65
2019-05-23T09:19:13.912Z,35.46
2019-05-23T09:21:43.207Z,34.32
2019-05-23T09:24:13.676Z,33.86
2019-05-23T09:26:43.204Z,35.47
2019-05-23T09:29:12.860Z,34.34
2019-05-23T09:31:43.223Z,34.36
2019-05-23T09:34:12.902Z,35.08
2019-05-23T09:36:42.856Z,34.82
2019-05-23T09:39:15.406Z,34.65
2019-05-23T09:41:44.762Z,34.03
2019-05-23T09:44:14.379Z,34.33
2019-05-23T09:46:44.002Z,34.32
2019-05-23T09:49:13.752Z,35.11
2019-05-23T09:51:42.992Z,34.30
2019-05-23T09:54:12.691Z,35.38
2019-05-23T09:56:43.160Z,33.04
2019-05-23T09:59:12.569Z,33.74
2019-05-23T10:01:43.347Z,34.07
2019-05-23T10:04:12.756Z,34.05
2019-05-23T10:06:46.038Z,34.92
2019-05-23T10:09:13.606Z,34.01
2019-05-23T10:11:44.775Z,34.33
2019-05-23T10:14:19.616Z,33.78
2019-05-23T10:16:49.264Z,33.85
2019-05-23T10:19:18.491Z,34.01
2019-05-23T10:21:49.585Z,33.57
2019-05-23T10:24:19.325Z,33.78
2019-05-23T10:26:48.550Z,33.73
2019-05-23T10:29:18.609Z,34.17
2019-05-23T10:31:48.030Z,34.33
2019-05-23T10:34:17.301Z,33.71
2019-05-23T10:36:46.545Z,33.17
2019-05-23T10:39:16.135Z,34.23
2019-05-23T10:41:46.103Z,34.15
2019-05-23T10:46:32.990Z,34.28
2019-05-23T10:49:02.893Z,33.48
2019-05-23T10:51:32.340Z,32.29
2019-05-23T10:54:01.605Z,33.36
2019-05-23T10:56:31.064Z,33.49
2019-05-23T10:59:02.265Z,33.05
2019-05-23T11:01:32.090Z,32.67
2019-05-23T11:04:01.801Z,32.45
2019-05-23T11:06:32.698Z,32.86
2019-05-23T11:09:02.118Z,32.06
2019-05-23T11:11:31.440Z,32.94
2019-05-23T11:14:01.069Z,32.41
2019-05-23T11:16:30.710Z,32.49
2019-05-23T11:19:00.015Z,32.25
2019-05-23T11:21:29.409Z,31.70
2019-05-23T11:23:58.827Z,32.18
2019-05-23T11:26:28.088Z,31.50
2019-05-23T11:28:58.961Z,30.81
2019-05-23T11:31:28.915Z,30.97
2019-05-23T11:33:58.213Z,32.14
2019-05-23T11:36:35.400Z,32.80
2019-05-23T11:38:58.578Z,31.44
2019-05-23T11:41:27.812Z,31.96
2019-05-23T11:43:57.379Z,31.30
2019-05-23T11:46:30.009Z,31.72
2019-05-23T11:48:59.496Z,30.22
2019-05-23T11:51:29.219Z,30.73
2019-05-23T11:54:07.894Z,30.49
2019-05-23T11:56:31.936Z,31.06
2019-05-23T11:59:02.369Z,30.31
2019-05-23T12:01:50.004Z,31.37
2019-05-23T12:04:21.046Z,31.63
2019-05-23T12:06:58.457Z,30.14
2019-05-23T12:09:27.705Z,31.83
2019-05-23T12:11:57.163Z,30.98
2019-05-23T12:14:26.379Z,31.25
2019-05-23T12:16:57.750Z,30.83
2019-05-23T12:19:27.012Z,30.83
2019-05-23T12:21:56.367Z,31.19
2019-05-23T12:24:26.117Z,30.81
2019-05-23T12:26:56.863Z,31.02
2019-05-23T12:29:26.478Z,31.12
2019-05-23T12:31:55.894Z,31.20
2019-05-23T12:34:25.742Z,30.86
2019-05-23T12:37:14.119Z,31.34
2019-05-23T12:39:26.321Z,31.54
2019-05-23T12:41:55.730Z,30.22
2019-05-23T12:44:25.056Z,30.09
2019-05-23T12:46:54.598Z,30.25
2019-05-23T12:49:35.063Z,30.13
2019-05-23T12:52:06.782Z,29.64
2019-05-23T12:54:37.942Z,29.83
2019-05-23T12:57:07.570Z,29.80
2019-05-23T12:59:37.047Z,29.95
2019-05-23T13:02:10.922Z,30.13
2019-05-23T13:04:40.589Z,30.86
2019-05-23T13:07:10.196Z,31.35
2019-05-23T13:09:40.083Z,30.24
2019-05-23T13:12:09.718Z,29.56
2019-05-23T13:14:38.988Z,30.33
2019-05-23T13:17:08.554Z,32.23
2019-05-23T13:19:39.754Z,31.37
2019-05-23T13:22:09.389Z,31.09
2019-05-23T13:24:52.157Z,30.79
2019-05-23T13:27:10.111Z,30.51
2019-05-23T13:29:39.833Z,30.11
2019-05-23T13:32:09.208Z,30.61
2019-05-23T13:34:38.595Z,30.29
2019-05-23T13:37:10.237Z,29.40
2019-05-23T13:39:39.495Z,29.61
2019-05-23T13:42:08.746Z,29.15
2019-05-23T13:44:38.604Z,29.19
2019-05-23T13:47:07.857Z,30.19
2019-05-23T13:49:37.860Z,30.19
2019-05-23T13:52:07.617Z,29.31
2019-05-23T13:54:37.283Z,30.27
2019-05-23T13:57:08.258Z,29.69
2019-05-23T13:59:38.430Z,30.55
2019-05-23T14:02:09.177Z,29.95
2019-05-23T14:04:38.750Z,28.19
2019-05-23T14:07:10.038Z,29.05
2019-05-23T14:09:39.776Z,29.51
2019-05-23T14:12:24.985Z,29.74
2019-05-23T14:14:41.079Z,30.11
2019-05-23T14:17:29.524Z,29.96
2019-05-23T14:19:59.023Z,30.95
2019-05-23T14:22:28.821Z,29.14
2019-05-23T14:24:58.372Z,30.00
2019-05-23T14:27:41.280Z,28.56
2019-05-23T14:30:22.031Z,27.86
2019-05-23T14:32:56.783Z,27.58
2019-05-23T14:35:30.101Z,28.74
2019-05-23T14:38:01.122Z,28.90
2019-05-23T14:40:30.718Z,29.71
2019-05-23T14:43:20.397Z,29.67
2019-05-23T14:45:59.756Z,29.50
2019-05-23T14:48:47.198Z,29.85
2019-05-23T14:51:46.169Z,29.94
2019-05-23T14:54:34.331Z,28.85
2019-05-23T14:57:05.559Z,28.90
2019-05-23T14:59:35.142Z,29.34
2019-05-23T15:02:06.719Z,28.99
2019-05-23T15:04:36.089Z,28.98
2019-05-23T15:07:05.590Z,29.10
2019-05-23T15:09:36.468Z,29.64
2019-05-23T15:12:06.530Z,29.65
2019-05-23T15:14:35.747Z,29.19
2019-05-23T15:17:05.539Z,29.64
2019-05-23T15:19:42.095Z,28.73
2019-05-23T15:22:06.584Z,28.95
2019-05-23T15:24:35.928Z,29.52
2019-05-23T15:27:05.978Z,29.29
2019-05-23T15:29:36.610Z,29.75
2019-05-23T15:32:06.166Z,29.64
2019-05-23T15:34:36.236Z,30.13
2019-05-23T15:37:05.680Z,29.81
2019-05-23T15:39:35.340Z,29.37
2019-05-23T15:42:04.662Z,29.51
2019-05-23T15:44:33.967Z,29.54
2019-05-23T15:47:03.348Z,29.46
2019-05-23T15:49:34.852Z,30.11
2019-05-23T15:52:18.786Z,29.61
2019-05-23T15:55:09.761Z,30.44
2019-05-23T15:57:46.179Z,30.61
2019-05-23T16:00:47.668Z,29.80
2019-05-23T16:03:31.669Z,30.06
2019-05-23T16:06:01.340Z,29.23
2019-05-23T16:08:31.075Z,29.26
2019-05-23T16:11:00.516Z,30.07
2019-05-23T16:13:29.827Z,29.74
2019-05-23T16:15:59.441Z,30.24
2019-05-23T16:18:29.550Z,31.14
2019-05-23T16:20:58.850Z,31.81
2019-05-23T16:23:28.842Z,32.63
2019-05-23T16:25:58.619Z,32.91
2019-05-23T16:28:28.246Z,32.36
2019-05-23T16:30:58.291Z,32.35
2019-05-23T16:33:27.888Z,32.34
2019-05-23T16:35:57.716Z,32.07
2019-05-23T16:38:26.995Z,31.90
2019-05-23T16:40:56.597Z,32.23
2019-05-23T16:43:26.279Z,32.54
2019-05-23T16:45:55.795Z,32.42
2019-05-23T16:48:27.562Z,32.71
2019-05-23T16:50:56.939Z,33.20
2019-05-23T16:53:26.990Z,32.67
2019-05-23T16:56:07.979Z,32.98
2019-05-23T16:59:08.382Z,32.47
2019-05-23T17:02:06.481Z,32.23
2019-05-23T17:05:09.272Z,32.88
2019-05-23T17:07:58.215Z,32.31
2019-05-23T17:10:52.281Z,32.78
2019-05-23T17:13:40.944Z,32.54
2019-05-23T17:16:17.528Z,32.36
2019-05-23T17:19:11.877Z,32.71
2019-05-23T17:22:05.250Z,32.40
2019-05-23T17:24:40.416Z,32.36
2019-05-23T17:27:28.628Z,32.49
2019-05-23T17:30:10.571Z,32.19
2019-05-23T17:32:40.191Z,31.52
2019-05-23T17:35:09.468Z,31.49
2019-05-23T17:37:39.609Z,31.97
2019-05-23T17:40:23.547Z,32.23
2019-05-23T17:42:40.566Z,32.30
2019-05-23T17:45:13.910Z,32.03
2019-05-23T17:47:41.936Z,31.81
2019-05-23T17:50:11.518Z,32.37
2019-05-23T17:52:42.673Z,32.24
2019-05-23T17:55:12.437Z,32.45
2019-05-23T17:57:42.414Z,32.45
2019-05-23T18:00:13.458Z,31.64
2019-05-23T18:02:42.750Z,31.83
2019-05-23T18:05:12.161Z,31.75
2019-05-23T18:07:43.156Z,31.57
2019-05-23T18:10:12.952Z,31.27
2019-05-23T18:12:42.904Z,32.25
2019-05-23T18:15:15.908Z,32.65
2019-05-23T18:17:45.545Z,33.23
2019-05-23T18:20:15.640Z,33.62
2019-05-23T18:22:45.258Z,34.74
2019-05-23T18:25:15.568Z,34.87
2019-05-23T18:27:45.750Z,35.04
2019-05-23T18:30:29.351Z,35.24
2019-05-23T18:33:00.292Z,35.61
2019-05-23T18:35:31.171Z,35.77
2019-05-23T18:38:01.323Z,35.86
2019-05-23T18:40:31.066Z,36.23
2019-05-23T18:43:00.879Z,37.06
2019-05-23T18:45:32.949Z,37.06
2019-05-23T18:48:02.244Z,36.65
2019-05-23T18:50:32.645Z,36.53
2019-05-23T18:53:03.345Z,36.99
2019-05-23T18:55:32.951Z,37.47
2019-05-23T18:58:02.293Z,37.31
2019-05-23T19:01:22.530Z,38.05
2019-05-23T19:03:55.314Z,38.10
2019-05-23T19:06:24.955Z,38.44
2019-05-23T19:08:54.572Z,38.82
2019-05-23T19:11:23.850Z,39.25
2019-05-23T19:13:53.184Z,39.52
2019-05-23T19:16:23.047Z,39.56
2019-05-23T19:18:52.497Z,39.84
2019-05-23T19:21:22.352Z,40.47
2019-05-23T19:23:51.704Z,40.95
2019-05-23T19:26:21.967Z,41.83
2019-05-23T19:28:52.537Z,42.43
2019-05-23T19:31:23.766Z,42.22
2019-05-23T19:33:53.418Z,43.23
2019-05-23T19:36:23.086Z,43.42
2019-05-23T19:38:53.546Z,44.31
2019-05-23T19:41:36.133Z,44.69
2019-05-23T19:43:55.203Z,45.23
2019-05-23T19:46:24.439Z,45.42
2019-05-23T19:48:55.378Z,45.04
2019-05-23T19:51:24.587Z,45.32
2019-05-23T19:53:55.230Z,45.95
2019-05-23T19:56:25.900Z,45.32
2019-05-23T19:58:55.285Z,46.19
2019-05-23T20:01:26.932Z,46.65
2019-05-23T20:03:57.993Z,46.60
2019-05-23T20:06:27.436Z,46.38
2019-05-23T20:08:56.961Z,46.52
2019-05-23T20:11:26.605Z,47.07
2019-05-23T20:13:55.867Z,48.07
2019-05-23T20:16:25.928Z,48.51
2019-05-23T20:18:55.372Z,48.92
2019-05-23T20:21:25.031Z,48.63
2019-05-23T20:23:54.295Z,48.64
2019-05-23T20:26:23.626Z,48.64
2019-05-23T20:28:54.982Z,48.58
2019-05-23T20:31:24.207Z,48.64
2019-05-23T20:33:54.011Z,48.88
2019-05-23T20:36:23.266Z,48.60
2019-05-23T20:38:54.130Z,48.95
2019-05-23T20:41:23.958Z,49.21
2019-05-23T20:43:53.248Z,49.29
2019-05-23T20:46:22.671Z,49.34
2019-05-23T20:48:52.722Z,49.55
2019-05-23T20:51:22.468Z,50.02
2019-05-23T20:53:52.295Z,50.38
2019-05-23T20:56:21.905Z,50.15
2019-05-23T20:58:51.538Z,50.53
2019-05-23T21:01:33.176Z,50.46
2019-05-23T21:04:02.411Z,50.49
2019-05-23T21:06:31.813Z,50.29
2019-05-23T21:09:01.747Z,50.88
2019-05-23T21:11:31.360Z,51.53
2019-05-23T21:14:00.647Z,51.31
2019-05-23T21:16:29.880Z,51.74
2019-05-23T21:18:59.167Z,51.90
2019-05-23T21:21:28.866Z,51.63
2019-05-23T21:23:58.116Z,51.96
2019-05-23T21:26:28.502Z,52.34
2019-05-23T21:28:57.765Z,52.86
2019-05-23T21:31:28.936Z,52.74
2019-05-23T21:33:58.184Z,53.00
2019-05-23T21:36:29.267Z,52.33
2019-05-23T21:38:58.561Z,52.70
2019-05-23T21:41:28.090Z,52.82
2019-05-23T21:43:58.975Z,53.08
2019-05-23T21:46:28.228Z,53.36
2019-05-23T21:48:57.904Z,52.97
2019-05-23T21:51:27.247Z,52.93
2019-05-23T21:53:58.029Z,53.04
2019-05-23T21:56:27.362Z,53.54
2019-05-23T21:58:56.910Z,53.08
2019-05-23T22:01:44.455Z,53.50
2019-05-23T22:04:22.046Z,52.81
2019-05-23T22:07:05.452Z,52.29
2019-05-23T22:09:35.870Z,52.80
2019-05-23T22:12:06.165Z,52.42
2019-05-23T22:14:36.322Z,52.61
2019-05-23T22:17:05.684Z,52.95
2019-05-23T22:19:35.421Z,53.08
2019-05-23T22:22:05.350Z,53.09
2019-05-23T22:24:34.645Z,53.21
2019-05-23T22:27:04.470Z,52.41
2019-05-23T22:29:34.044Z,52.67
2019-05-23T22:32:05.061Z,52.76
2019-05-23T22:35:00.344Z,53.02
2019-05-23T22:37:31.367Z,53.22
2019-05-23T22:40:00.878Z,53.23
2019-05-23T22:42:32.434Z,53.45
2019-05-23T22:45:02.577Z,53.17
2019-05-23T22:47:31.807Z,53.48
2019-05-23T22:50:01.033Z,53.93
2019-05-23T22:52:30.300Z,53.14
2019-05-23T22:54:59.940Z,53.59
2019-05-23T22:57:29.303Z,53.45
2019-05-23T22:59:58.531Z,54.22
2019-05-23T23:02:27.759Z,54.31
2019-05-23T23:04:57.375Z,54.48
2019-05-23T23:07:27.053Z,54.62
2019-05-23T23:09:56.767Z,54.87
2019-05-23T23:12:26.288Z,55.25
2019-05-23T23:14:55.531Z,55.50
2019-05-23T23:17:24.993Z,55.54
2019-05-23T23:19:55.198Z,55.54
2019-05-23T23:22:24.436Z,55.07
2019-05-23T23:24:54.328Z,55.04
2019-05-23T23:27:23.584Z,55.08
2019-05-23T23:29:52.819Z,55.30
2019-05-23T23:32:22.272Z,55.23
2019-05-23T23:34:51.805Z,55.33
2019-05-23T23:37:21.007Z,54.77
2019-05-23T23:39:50.535Z,55.39
2019-05-23T23:42:20.070Z,55.41
2019-05-23T23:44:48.695Z,55.22
2019-05-23T23:47:35.464Z,55.71
2019-05-23T23:50:23.730Z,55.09
2019-05-23T23:53:10.777Z,55.46
2019-05-23T23:55:57.853Z,55.45
2019-05-23T23:58:26.433Z,55.97
